Wanamingo, Minnesota
Current Conditions -  °F | °C
As of 2:14 PM on Saturday 25 Oct 2014 (Local Time) from KSYN Reporting Station
Clear Clear  
Wind Chill: 64°   Ceiling: Unl
Heat Index: 64°   Visibility: 10mi
Dew Point: 29°   Wind: 15mph
Humidity: 27%   Direction: 310°NW
Pressure: 30.03"   Gusts: NA
Location:  44.3°N, 92.79°W
Report Text: KSYN 251914Z AUTO 31013KT 10SM CLR 18/M02 A3003 RMK AO2 T01771018
Loading
Personal Weather Stations






























Interactive Weather Map
Tropical Storm Tracking
New forecast layout! Learn more

10-Day Weather Forecast

Advertisements
Track Severe Weather on mobile